createdAt,value
2023-03-04T00:00:27.280Z,101228.97
2023-03-04T00:02:53.768Z,101226.66
2023-03-04T00:05:20.211Z,101227.50
2023-03-04T00:07:46.632Z,101233.78
2023-03-04T00:10:13.453Z,101226.78
2023-03-04T00:12:39.938Z,101230.22
2023-03-04T00:15:06.906Z,101222.41
2023-03-04T00:17:33.369Z,101228.44
2023-03-04T00:19:59.928Z,101216.72
2023-03-04T00:22:26.388Z,101223.00
2023-03-04T00:24:52.957Z,101214.09
2023-03-04T00:27:19.434Z,101203.56
2023-03-04T00:29:46.075Z,101203.72
2023-03-04T00:32:12.800Z,101189.88
2023-03-04T00:34:40.630Z,101193.28
2023-03-04T00:37:07.082Z,101196.03
2023-03-04T00:39:33.541Z,101201.97
2023-03-04T00:42:00.154Z,101204.38
2023-03-04T00:44:26.588Z,101214.06
2023-03-04T00:46:53.031Z,101203.41
2023-03-04T00:49:19.527Z,101200.78
2023-03-04T00:51:45.995Z,101199.84
2023-03-04T00:54:12.472Z,101200.63
2023-03-04T00:56:39.066Z,101189.97
2023-03-04T00:59:07.967Z,101188.91
2023-03-04T01:01:34.505Z,101191.75
2023-03-04T01:04:00.935Z,101194.44
2023-03-04T01:06:27.396Z,101187.34
2023-03-04T01:08:53.873Z,101179.59
2023-03-04T01:11:20.385Z,101190.69
2023-03-04T01:13:47.027Z,101184.91
2023-03-04T01:16:13.755Z,101177.75
2023-03-04T01:18:40.417Z,101169.06
2023-03-04T01:21:07.086Z,101177.75
2023-03-04T01:23:33.560Z,101174.91
2023-03-04T01:26:00.060Z,101166.28
2023-03-04T01:28:26.523Z,101171.41
2023-03-04T01:30:53.098Z,101160.66
2023-03-04T01:33:19.616Z,101157.81
2023-03-04T01:35:46.137Z,101155.19
2023-03-04T01:38:13.205Z,101147.50
2023-03-04T01:40:39.835Z,101152.84
2023-03-04T01:43:07.828Z,101153.47
2023-03-04T01:45:35.817Z,101147.94
2023-03-04T01:48:02.686Z,101143.53
2023-03-04T01:50:35.531Z,101145.91
2023-03-04T01:53:03.242Z,101134.50
2023-03-04T01:55:31.628Z,101139.59
2023-03-04T01:57:58.368Z,101136.09
2023-03-04T02:00:33.821Z,101127.34
2023-03-04T02:03:04.412Z,101126.59
2023-03-04T02:09:10.440Z,101124.03
2023-03-04T02:11:38.370Z,101117.75
2023-03-04T02:14:06.349Z,101116.41
2023-03-04T02:16:33.317Z,101121.44
2023-03-04T02:19:00.271Z,101119.63
2023-03-04T02:21:29.583Z,101115.03
2023-03-04T02:24:11.997Z,101109.75
2023-03-04T02:26:41.548Z,101114.94
2023-03-04T02:29:10.461Z,101108.81
2023-03-04T02:31:49.386Z,101104.00
2023-03-04T02:34:22.422Z,101095.50
2023-03-04T02:36:51.261Z,101098.69
2023-03-04T02:39:20.415Z,101090.00
2023-03-04T02:41:55.654Z,101080.94
2023-03-04T02:44:26.001Z,101076.69
2023-03-04T02:46:53.368Z,101084.13
2023-03-04T02:49:20.574Z,101078.16
2023-03-04T02:51:47.324Z,101071.66
2023-03-04T02:54:18.387Z,101059.03
2023-03-04T02:56:52.429Z,101062.38
2023-03-04T02:59:20.405Z,101064.50
2023-03-04T03:01:46.954Z,101073.50
2023-03-04T03:04:13.417Z,101070.66
2023-03-04T03:06:40.614Z,101064.69
2023-03-04T03:09:07.648Z,101067.53
2023-03-04T03:11:34.662Z,101064.50
2023-03-04T03:14:01.990Z,101072.25
2023-03-04T03:16:28.541Z,101063.91
2023-03-04T03:18:54.997Z,101066.25
2023-03-04T03:21:21.602Z,101068.09
2023-03-04T03:23:48.015Z,101063.91
2023-03-04T03:26:14.478Z,101065.16
2023-03-04T03:28:40.949Z,101060.72
2023-03-04T03:31:07.447Z,101063.75
2023-03-04T03:33:33.907Z,101061.41
2023-03-04T03:36:00.548Z,101063.31
2023-03-04T03:38:27.719Z,101058.03
2023-03-04T03:40:54.135Z,101057.50
2023-03-04T03:43:20.554Z,101052.75
2023-03-04T03:45:47.081Z,101050.59
2023-03-04T03:48:13.946Z,101043.81
2023-03-04T03:50:40.381Z,101045.16
2023-03-04T03:53:06.868Z,101039.81
2023-03-04T03:55:33.597Z,101032.16
2023-03-04T03:58:00.064Z,101039.28
2023-03-04T04:00:26.822Z,101022.22
2023-03-04T04:02:55.491Z,101020.13
2023-03-04T04:05:21.925Z,101027.03
2023-03-04T04:07:48.412Z,101028.56
2023-03-04T04:10:14.917Z,101022.22
2023-03-04T04:12:41.341Z,101020.38
2023-03-04T04:15:09.962Z,101021.91
2023-03-04T04:17:36.516Z,101022.53
2023-03-04T04:20:03.319Z,101023.44
2023-03-04T04:22:29.788Z,101018.03
2023-03-04T04:24:56.281Z,101013.38
2023-03-04T04:27:22.943Z,101022.44
2023-03-04T04:29:49.373Z,101019.25
2023-03-04T04:32:15.930Z,101020.50
2023-03-04T04:34:42.516Z,101013.44
2023-03-04T04:37:08.961Z,101010.66
2023-03-04T04:39:35.511Z,101005.63
2023-03-04T04:42:03.481Z,101009.16
2023-03-04T04:44:30.030Z,101006.00
2023-03-04T04:46:56.464Z,101006.91
2023-03-04T04:49:22.883Z,101000.53
2023-03-04T04:51:49.373Z,101003.69
2023-03-04T04:54:15.848Z,101008.00
2023-03-04T04:56:42.431Z,100994.25
2023-03-04T04:59:09.178Z,100992.81
2023-03-04T05:01:35.852Z,100991.19
2023-03-04T05:04:02.389Z,100990.25
2023-03-04T05:06:28.949Z,100989.69
2023-03-04T05:08:55.641Z,100985.94
2023-03-04T05:11:22.605Z,100992.25
2023-03-04T05:13:49.669Z,100986.97
2023-03-04T05:16:17.866Z,100985.94
2023-03-04T05:18:44.555Z,100986.50
2023-03-04T05:21:11.452Z,100988.94
2023-03-04T05:23:40.625Z,100994.03
2023-03-04T05:26:09.387Z,100995.31
2023-03-04T05:28:36.185Z,100990.81
2023-03-04T05:31:03.171Z,100990.53
2023-03-04T05:33:29.869Z,100982.13
2023-03-04T05:35:56.500Z,100986.03
2023-03-04T05:38:23.774Z,100976.50
2023-03-04T05:40:55.363Z,100978.31
2023-03-04T05:43:22.766Z,100981.81
2023-03-04T05:45:49.996Z,100986.56
2023-03-04T05:48:16.476Z,100978.91
2023-03-04T05:50:42.964Z,100977.81
2023-03-04T05:53:09.441Z,100970.25
2023-03-04T05:55:36.057Z,100975.59
2023-03-04T05:58:02.533Z,100979.69
2023-03-04T06:00:29.063Z,100978.06
2023-03-04T06:02:55.619Z,100978.22
2023-03-04T06:05:22.375Z,100973.13
2023-03-04T06:07:48.924Z,100977.28
2023-03-04T06:10:17.539Z,100977.28
2023-03-04T06:12:44.102Z,100979.91
2023-03-04T06:15:11.063Z,100986.56
2023-03-04T06:17:41.795Z,100979.59
2023-03-04T06:20:09.824Z,100982.16
2023-03-04T06:22:36.336Z,100981.13
2023-03-04T06:25:02.826Z,100984.53
2023-03-04T06:27:29.339Z,100985.13
2023-03-04T06:29:56.446Z,100983.94
2023-03-04T06:32:23.135Z,100981.56
2023-03-04T06:34:49.611Z,100984.38
2023-03-04T06:37:16.318Z,100982.56
2023-03-04T06:39:42.800Z,100985.72
2023-03-04T06:42:09.518Z,100995.16
2023-03-04T06:44:35.981Z,100988.53
2023-03-04T06:47:02.654Z,100991.06
2023-03-04T06:49:29.135Z,100990.91
2023-03-04T06:51:55.659Z,100988.94
2023-03-04T06:54:22.157Z,100995.00
2023-03-04T06:56:48.649Z,100992.94
2023-03-04T06:59:15.101Z,100991.25
2023-03-04T07:01:41.611Z,100985.97
2023-03-04T07:04:08.134Z,100989.72
2023-03-04T07:06:34.815Z,100994.50
2023-03-04T07:09:01.454Z,100982.59
2023-03-04T07:11:27.980Z,100990.84
2023-03-04T07:13:54.485Z,100993.81
2023-03-04T07:16:23.222Z,100995.19
2023-03-04T07:18:50.570Z,100999.69
2023-03-04T07:21:17.645Z,100994.75
2023-03-04T07:23:44.530Z,100998.06
2023-03-04T07:26:11.044Z,101007.69
2023-03-04T08:51:49.387Z,100971.13
2023-03-04T08:54:15.845Z,100971.03
2023-03-04T08:56:42.418Z,100969.13
2023-03-04T08:59:08.942Z,100969.72
2023-03-04T09:01:35.438Z,100960.88
2023-03-04T09:04:01.963Z,100962.56
2023-03-04T09:06:28.542Z,100961.91
2023-03-04T09:08:55.102Z,100963.69
2023-03-04T09:11:21.668Z,100969.44
2023-03-04T09:13:48.238Z,100964.63
2023-03-04T09:16:15.484Z,100959.06
2023-03-04T09:18:42.565Z,100955.19
2023-03-04T09:21:09.856Z,100962.19
2023-03-04T09:23:37.562Z,100966.88
2023-03-04T09:26:24.828Z,100963.22
2023-03-04T09:28:57.112Z,100969.47
2023-03-04T09:31:24.607Z,100971.25
2023-03-04T09:33:52.097Z,100971.44
2023-03-04T09:36:18.774Z,100967.84
2023-03-04T09:44:05.876Z,100972.00
2023-03-04T09:46:37.622Z,100973.13
2023-03-04T09:49:07.092Z,100971.63
2023-03-04T09:51:54.699Z,100968.25
2023-03-04T09:54:37.321Z,100972.66
2023-03-04T09:57:23.327Z,100977.28
2023-03-04T10:00:19.862Z,100972.00
2023-03-04T10:03:01.526Z,100969.09
2023-03-04T10:05:30.790Z,100963.81
2023-03-04T10:08:00.892Z,100967.66
2023-03-04T10:10:33.032Z,100975.78
2023-03-04T10:13:02.389Z,100961.81
2023-03-04T10:15:44.051Z,100964.09
2023-03-04T10:18:27.586Z,100965.84
2023-03-04T10:21:00.228Z,100968.59
2023-03-04T10:23:28.692Z,100965.09
2023-03-04T10:25:56.593Z,100960.00
2023-03-04T10:33:52.217Z,100968.06
2023-03-04T10:36:30.531Z,100973.03
2023-03-04T10:39:10.928Z,100964.78
2023-03-04T10:41:41.846Z,100964.44
2023-03-04T10:44:08.555Z,100963.28
2023-03-04T10:46:47.300Z,100964.22
2023-03-04T10:49:18.828Z,100966.09
2023-03-04T10:51:51.827Z,100968.66
2023-03-04T10:56:56.887Z,100961.03
2023-03-04T10:59:32.634Z,100959.03
2023-03-04T11:02:13.674Z,100962.75
2023-03-04T11:04:40.448Z,100966.97
2023-03-04T11:07:11.146Z,100963.66
2023-03-04T11:09:37.988Z,100971.69
2023-03-04T11:12:11.463Z,100965.34
2023-03-04T11:14:46.241Z,100956.25
2023-03-04T11:17:39.672Z,100964.97
2023-03-04T11:20:29.194Z,100958.78
2023-03-04T11:22:58.913Z,100970.03
2023-03-04T11:25:30.143Z,100962.91
2023-03-04T11:28:03.070Z,100966.72
2023-03-04T11:30:34.956Z,100969.88
2023-03-04T11:33:16.139Z,100981.56
2023-03-04T11:35:50.855Z,100980.69
2023-03-04T11:38:20.517Z,100982.88
2023-03-04T11:40:57.757Z,100980.28
2023-03-04T11:43:37.556Z,100988.22
2023-03-04T11:46:29.322Z,100982.13
2023-03-04T11:49:41.086Z,100984.66
2023-03-04T11:52:19.661Z,100975.19
2023-03-04T11:55:04.815Z,100979.63
2023-03-04T11:58:10.442Z,100979.97
2023-03-04T12:00:44.705Z,100974.72
2023-03-04T12:03:36.127Z,100965.03
2023-03-04T12:06:40.074Z,100968.84
2023-03-04T12:09:18.402Z,100973.84
2023-03-04T12:12:05.932Z,100981.31
2023-03-04T12:14:41.708Z,100966.66
2023-03-04T12:17:23.418Z,100975.00
2023-03-04T12:20:08.675Z,100974.91
2023-03-04T12:22:54.394Z,100972.78
2023-03-04T12:25:43.377Z,100974.72
2023-03-04T12:28:40.737Z,100963.03
2023-03-04T12:31:25.883Z,100970.72
2023-03-04T12:34:03.444Z,100970.28
2023-03-04T12:36:50.450Z,100970.78
2023-03-04T12:39:54.693Z,100965.94
2023-03-04T12:42:45.906Z,100969.75
2023-03-04T12:45:30.448Z,100968.53
2023-03-04T12:48:19.898Z,100963.75
2023-03-04T12:50:53.301Z,100963.16
2023-03-04T12:53:42.771Z,100973.88
2023-03-04T12:56:23.216Z,100976.03
2023-03-04T12:58:50.012Z,100970.19
2023-03-04T13:01:26.811Z,100969.69
2023-03-04T13:03:53.533Z,100960.72
2023-03-04T13:06:41.883Z,100963.25
2023-03-04T13:09:20.402Z,100965.03
2023-03-04T13:11:54.748Z,100969.28
2023-03-04T13:14:21.302Z,100958.91
2023-03-04T13:16:54.016Z,100966.91
2023-03-04T13:19:53.012Z,100966.16
2023-03-04T13:22:35.831Z,100963.34
2023-03-04T13:25:28.181Z,100965.88
2023-03-04T13:28:00.608Z,100964.84
2023-03-04T13:30:33.418Z,100967.75
2023-03-04T13:33:08.774Z,100975.81
2023-03-04T13:35:47.755Z,100970.72
2023-03-04T13:38:34.800Z,100963.56
2023-03-04T13:41:33.902Z,100968.84
2023-03-04T13:44:39.149Z,100969.81
2023-03-04T13:47:26.435Z,100971.88
2023-03-04T13:50:21.169Z,100969.50
2023-03-04T13:52:48.770Z,100976.03
2023-03-04T13:56:04.483Z,100974.91
2023-03-04T13:58:31.032Z,100979.63
2023-03-04T14:00:57.597Z,100974.09
2023-03-04T14:03:31.601Z,100967.09
2023-03-04T14:06:27.361Z,100975.50
2023-03-04T14:08:56.091Z,100962.06
2023-03-04T14:11:41.748Z,100967.63
2023-03-04T14:14:22.801Z,100974.34
2023-03-04T14:16:52.965Z,100975.53
2023-03-04T14:19:27.959Z,100973.34
2023-03-04T14:21:54.922Z,100966.56
2023-03-04T14:24:22.133Z,100965.22
2023-03-04T14:26:49.541Z,100967.41
2023-03-04T14:29:30.705Z,100969.00
2023-03-04T14:31:59.605Z,100951.63
2023-03-04T14:34:33.361Z,100966.44
2023-03-04T14:36:59.845Z,100957.75
2023-03-04T14:39:30.487Z,100964.34
2023-03-04T14:42:02.053Z,100970.06
2023-03-04T14:44:44.572Z,100961.16
2023-03-04T14:47:34.890Z,100966.66
2023-03-04T14:50:03.639Z,100970.25
2023-03-04T14:52:44.709Z,100967.78
2023-03-04T14:55:13.886Z,100968.06
2023-03-04T14:57:41.978Z,100968.38
2023-03-04T15:00:20.219Z,100971.38
2023-03-04T15:02:52.659Z,100969.34
2023-03-04T15:05:28.634Z,100960.78
2023-03-04T15:07:58.232Z,100962.91
2023-03-04T15:10:35.314Z,100960.56
2023-03-04T15:13:04.335Z,100963.88
2023-03-04T15:15:40.245Z,100972.28
2023-03-04T15:18:20.672Z,100971.97
2023-03-04T15:21:26.528Z,100961.78
2023-03-04T15:23:53.223Z,100968.22
2023-03-04T15:26:19.776Z,100958.13
2023-03-04T15:28:46.272Z,100957.94
2023-03-04T15:31:25.767Z,100953.94
2023-03-04T15:33:53.199Z,100956.16
2023-03-04T15:36:22.094Z,100956.81
2023-03-04T15:38:53.456Z,100956.31
2023-03-04T15:41:26.700Z,100950.09
2023-03-04T15:43:54.321Z,100944.81
2023-03-04T15:46:21.225Z,100948.50
2023-03-04T15:48:48.697Z,100948.78
2023-03-04T15:51:18.716Z,100941.72
2023-03-04T15:53:51.012Z,100931.06
2023-03-04T15:56:20.492Z,100932.56
2023-03-04T15:58:55.803Z,100933.59
2023-03-04T16:01:25.334Z,100930.66
2023-03-04T16:03:53.833Z,100927.19
2023-03-04T16:06:23.369Z,100923.78
2023-03-04T16:08:51.359Z,100926.69
2023-03-04T16:11:21.501Z,100934.56
2023-03-04T16:13:48.785Z,100931.44
2023-03-04T16:16:15.930Z,100932.09
2023-03-04T16:18:42.480Z,100936.81
2023-03-04T16:21:15.357Z,100930.00
2023-03-04T16:23:47.630Z,100935.88
2023-03-04T16:26:35.525Z,100942.25
2023-03-04T16:29:03.239Z,100939.06
2023-03-04T16:31:29.803Z,100938.41
2023-03-04T16:33:56.557Z,100940.56
2023-03-04T16:36:26.850Z,100939.06
2023-03-04T16:38:59.039Z,100935.28
2023-03-04T16:41:28.458Z,100937.47
2023-03-04T16:43:56.003Z,100938.88
2023-03-04T16:46:23.694Z,100936.44
2023-03-04T16:48:50.213Z,100933.31
2023-03-04T16:51:20.408Z,100943.13
2023-03-04T16:54:00.205Z,100947.66
2023-03-04T16:56:27.644Z,100951.63
2023-03-04T16:58:54.266Z,100947.66
2023-03-04T17:01:27.088Z,100949.28
2023-03-04T17:03:55.086Z,100961.25
2023-03-04T17:06:22.031Z,100955.97
2023-03-04T17:08:48.854Z,100954.34
2023-03-04T17:11:23.154Z,100962.28
2023-03-04T17:13:50.301Z,100960.09
2023-03-04T17:16:17.019Z,100959.63
2023-03-04T17:18:45.687Z,100964.84
2023-03-04T17:21:15.604Z,100964.06
2023-03-04T17:23:42.164Z,100967.47
2023-03-04T17:26:09.346Z,100973.72
2023-03-04T17:28:36.503Z,100976.38
2023-03-04T17:31:09.198Z,100977.41
2023-03-04T17:33:35.620Z,100969.94
2023-03-04T17:36:02.123Z,100979.44
2023-03-04T17:38:28.531Z,100977.03
2023-03-04T17:40:56.551Z,100975.97
2023-03-04T17:43:23.044Z,100972.59
2023-03-04T17:45:49.628Z,100976.72
2023-03-04T17:48:16.442Z,100975.88
2023-03-04T17:50:50.442Z,100974.81
2023-03-04T17:53:17.454Z,100976.78
2023-03-04T17:56:00.850Z,100974.16
2023-03-04T17:58:29.191Z,100978.09
2023-03-04T18:01:01.837Z,100975.22
2023-03-04T18:03:28.420Z,100980.25
2023-03-04T18:05:57.198Z,100978.22
2023-03-04T18:08:24.208Z,100972.94
2023-03-04T18:10:51.057Z,100969.16
2023-03-04T18:13:17.623Z,100969.03
2023-03-04T18:15:44.069Z,100972.47
2023-03-04T18:18:10.536Z,100971.69
2023-03-04T18:20:37.081Z,100963.28
2023-03-04T18:23:06.387Z,100962.22
2023-03-04T18:25:32.831Z,100959.59
2023-03-04T18:27:59.355Z,100963.28
2023-03-04T18:30:27.480Z,100960.09
2023-03-04T18:32:54.787Z,100971.28
2023-03-04T18:35:22.198Z,100959.13
2023-03-04T18:37:49.489Z,100959.97
2023-03-04T18:40:16.487Z,100960.94
2023-03-04T18:42:44.195Z,100962.06
2023-03-04T18:45:15.281Z,100962.81
2023-03-04T18:47:44.834Z,100965.66
2023-03-04T18:50:12.963Z,100961.22
2023-03-04T18:52:39.832Z,100959.59
2023-03-04T18:55:06.786Z,100962.16
2023-03-04T18:57:33.480Z,100958.38
2023-03-04T19:00:03.841Z,100955.16
2023-03-04T19:02:41.873Z,100964.59
2023-03-04T19:05:13.612Z,100967.63
2023-03-04T19:07:43.219Z,100977.22
2023-03-04T19:10:12.160Z,100968.34
2023-03-04T19:12:39.097Z,100970.81
2023-03-04T19:15:08.434Z,100972.22
2023-03-04T19:17:35.872Z,100968.28
2023-03-04T19:20:07.197Z,100970.53
2023-03-04T19:22:33.727Z,100960.53
2023-03-04T19:25:00.247Z,100971.34
2023-03-04T19:27:27.034Z,100967.13
2023-03-04T19:29:53.566Z,100963.25
2023-03-04T19:32:20.273Z,100966.00
2023-03-04T19:34:47.673Z,100964.09
2023-03-04T19:37:15.568Z,100965.66
2023-03-04T19:39:46.206Z,100972.31
2023-03-04T19:42:13.578Z,100969.16
2023-03-04T19:44:41.295Z,100969.28
2023-03-04T19:47:09.088Z,100968.81
2023-03-04T19:49:35.832Z,100969.84
2023-03-04T19:52:02.420Z,100972.94
2023-03-04T19:54:29.340Z,100970.41
2023-03-04T19:56:56.012Z,100968.16
2023-03-04T19:59:22.543Z,100967.75
2023-03-04T20:01:49.125Z,100973.22
2023-03-04T20:04:18.174Z,100976.25
2023-03-04T20:06:46.942Z,100971.59
2023-03-04T20:09:15.151Z,100971.88
2023-03-04T20:11:56.746Z,100975.19
2023-03-04T21:25:19.031Z,100962.13
2023-03-04T21:27:45.457Z,100960.94
2023-03-04T21:30:12.272Z,100963.59
2023-03-04T21:32:39.349Z,100962.47
2023-03-04T21:35:06.383Z,100957.56
2023-03-04T21:37:32.945Z,100958.06
2023-03-04T21:40:01.236Z,100961.97
2023-03-04T21:42:27.791Z,100962.13
2023-03-04T21:44:54.286Z,100965.72
2023-03-04T21:47:21.874Z,100970.16
2023-03-04T21:49:49.213Z,100957.06
2023-03-04T21:52:17.072Z,100958.66
2023-03-04T21:54:43.544Z,100957.38
2023-03-04T21:57:10.474Z,100944.56
2023-03-04T21:59:38.521Z,100941.06
2023-03-04T22:02:05.046Z,100935.69
2023-03-04T22:04:31.521Z,100934.75
2023-03-04T22:06:58.050Z,100939.09
2023-03-04T22:09:24.974Z,100940.19
2023-03-04T22:11:51.445Z,100928.03
2023-03-04T22:14:18.147Z,100930.59
2023-03-04T22:16:54.356Z,100931.19
2023-03-04T22:19:26.723Z,100928.13
2023-03-04T22:21:53.648Z,100928.97
2023-03-04T22:24:21.008Z,100921.66
2023-03-04T22:26:47.662Z,100927.19
2023-03-04T22:29:14.433Z,100924.06
2023-03-04T22:31:41.047Z,100925.81
2023-03-04T22:34:11.079Z,100924.91
2023-03-04T22:36:40.424Z,100919.63
2023-03-04T22:39:09.775Z,100915.28
2023-03-04T22:41:36.506Z,100918.09
2023-03-04T22:44:03.298Z,100912.50
2023-03-04T22:46:31.863Z,100908.41
2023-03-04T22:49:04.712Z,100902.63
2023-03-04T22:51:32.048Z,100909.59
2023-03-04T22:53:58.539Z,100900.16
2023-03-04T22:56:25.121Z,100905.34
2023-03-04T22:58:52.043Z,100897.84
2023-03-04T23:01:19.611Z,100892.75
2023-03-04T23:03:48.390Z,100887.75
2023-03-04T23:06:18.215Z,100889.88
2023-03-04T23:08:46.623Z,100882.72
2023-03-04T23:11:29.259Z,100887.16
2023-03-04T23:13:57.085Z,100883.56
2023-03-04T23:16:25.280Z,100882.03
2023-03-04T23:18:52.097Z,100878.38
2023-03-04T23:21:24.658Z,100877.28
2023-03-04T23:23:52.193Z,100880.75
2023-03-04T23:26:21.524Z,100872.16
2023-03-04T23:28:48.378Z,100869.88
2023-03-04T23:31:15.089Z,100871.94
2023-03-04T23:33:43.145Z,100865.09
2023-03-04T23:36:15.587Z,100868.13
2023-03-04T23:38:46.983Z,100866.22
2023-03-04T23:41:15.450Z,100863.41
2023-03-04T23:43:41.869Z,100862.69
2023-03-04T23:46:14.182Z,100853.81
2023-03-04T23:48:43.283Z,100859.78
2023-03-04T23:51:10.552Z,100855.88
2023-03-04T23:53:38.987Z,100860.66
2023-03-04T23:56:34.522Z,100867.69
2023-03-04T23:59:00.984Z,100863.72
